Česky Dansk Deutsch English Español Suomi Français Magyar Italiano Nederlands norsk Polski Português svenska Türkçe

 

Het Weer

Lecce (Italië)

07:55, 22 augustus 2016 (GMT)

NWNNE
WE
SWSSE
Home            
Lecce Brindisi S. Maria Di Leuca Grottaglie Marina Di Ginosa Gioia Del Colle Calopezzati Bari / Palese Macchie Kerkyra Airport Crotone Monte Scuro Latronico Tirana Potenza Bonifati Lamezia Terme Ohrid Capo Palinuro Tivat Monte S. Angelo Amendola Podgorica / Golubovci Dubrovnik / Cilipi

Om een weerknop op uw website of weblog te plaatsen, copieer onderstaande code en plak die in uw pagina. In het eerste vakje staat HTML-code, in het tweede vakje UBB-code.


Add to Google

Details

Wind speed:1 bf, 3 kn, 1.5 m/s, 3.5 miles/h, 5.6 km/h
Wind direction:NW, 310°
Visibility:Greater than 10000 m, 10 km, 32800 ft, 6.2 miles
Clouds:CAVOC
Temperature:30°C, 86°F
Gefühlte Temperatur:32°C, 89°F
Dew-point:20°C, 68°F
Atmospheric pressure:1014 hPa, 760.6 mmHg, 29.94 inHg, 1.001 atm
Relative humidity:55.1 %
METAR:LIBN 220755Z 31003KT CAVOK 30/20 Q1014 RMK SKC VIS MIN 9999 WIND THR14 30003KT WIND THR32 27004KT BLU

Snelkoppelingen

Actuele weersinformatie van de hele wereld. Voeg locaties toe met het plus (+) symbool. Deze snelkoppelingen kunnen worden toegevoegd aan Google.

Lid van de Technetium groep

website free tracking
StatCounter NetStat W3C Validator

26-05-2024 03:56:41
astro.technetium.be money.technetium.be phote.technetium.be tafeltennistafel.technetium.be www.ligfiets.net